sensor_id;sensor_type;location;lat;lon;timestamp;P1;durP1;ratioP1;P2;durP2;ratioP2
27257;SDS011;62045;49.986;8.672;2022-12-07T00:02:30;3.13;;;1.65;;
27257;SDS011;62045;49.986;8.672;2022-12-07T00:07:32;2.45;;;1.20;;
27257;SDS011;62045;49.986;8.672;2022-12-07T00:12:33;2.47;;;1.30;;
27257;SDS011;62045;49.986;8.672;2022-12-07T00:17:34;2.28;;;1.10;;
27257;SDS011;62045;49.986;8.672;2022-12-07T00:22:36;2.60;;;1.40;;
27257;SDS011;62045;49.986;8.672;2022-12-07T00:27:36;2.10;;;1.20;;
27257;SDS011;62045;49.986;8.672;2022-12-07T00:32:37;2.70;;;1.50;;
27257;SDS011;62045;49.986;8.672;2022-12-07T00:37:39;2.55;;;1.63;;
27257;SDS011;62045;49.986;8.672;2022-12-07T00:42:40;2.08;;;1.02;;
27257;SDS011;62045;49.986;8.672;2022-12-07T00:47:41;2.30;;;1.30;;
27257;SDS011;62045;49.986;8.672;2022-12-07T00:52:43;3.35;;;1.20;;
27257;SDS011;62045;49.986;8.672;2022-12-07T00:57:43;2.35;;;1.48;;
27257;SDS011;62045;49.986;8.672;2022-12-07T01:02:44;3.13;;;1.40;;
27257;SDS011;62045;49.986;8.672;2022-12-07T01:07:46;2.72;;;1.40;;
27257;SDS011;62045;49.986;8.672;2022-12-07T01:12:47;3.47;;;1.50;;
27257;SDS011;62045;49.986;8.672;2022-12-07T01:17:47;1.83;;;1.10;;
27257;SDS011;62045;49.986;8.672;2022-12-07T01:22:50;2.33;;;1.10;;
27257;SDS011;62045;49.986;8.672;2022-12-07T01:27:50;2.50;;;1.20;;
27257;SDS011;62045;49.986;8.672;2022-12-07T01:32:51;2.17;;;1.30;;
27257;SDS011;62045;49.986;8.672;2022-12-07T01:37:53;2.50;;;1.20;;
27257;SDS011;62045;49.986;8.672;2022-12-07T01:42:54;2.30;;;1.30;;
27257;SDS011;62045;49.986;8.672;2022-12-07T01:47:55;2.70;;;1.50;;
27257;SDS011;62045;49.986;8.672;2022-12-07T01:52:58;2.30;;;1.25;;
27257;SDS011;62045;49.986;8.672;2022-12-07T01:58:04;2.20;;;1.10;;
27257;SDS011;62045;49.986;8.672;2022-12-07T02:03:05;2.67;;;1.20;;
27257;SDS011;62045;49.986;8.672;2022-12-07T02:08:10;2.10;;;1.20;;
27257;SDS011;62045;49.986;8.672;2022-12-07T02:13:13;2.27;;;1.20;;
27257;SDS011;62045;49.986;8.672;2022-12-07T02:18:17;2.05;;;1.15;;
27257;SDS011;62045;49.986;8.672;2022-12-07T02:23:34;3.55;;;1.30;;
27257;SDS011;62045;49.986;8.672;2022-12-07T02:28:56;1.90;;;1.15;;
27257;SDS011;62045;49.986;8.672;2022-12-07T02:34:18;2.22;;;1.17;;
27257;SDS011;62045;49.986;8.672;2022-12-07T02:39:25;2.13;;;1.20;;
27257;SDS011;62045;49.986;8.672;2022-12-07T02:44:32;2.28;;;1.10;;
27257;SDS011;62045;49.986;8.672;2022-12-07T02:49:33;2.70;;;1.30;;
27257;SDS011;62045;49.986;8.672;2022-12-07T02:54:36;2.73;;;1.37;;
27257;SDS011;62045;49.986;8.672;2022-12-07T02:59:41;2.13;;;1.23;;
27257;SDS011;62045;49.986;8.672;2022-12-07T03:04:56;2.15;;;1.30;;
27257;SDS011;62045;49.986;8.672;2022-12-07T03:10:07;1.95;;;0.98;;
27257;SDS011;62045;49.986;8.672;2022-12-07T03:15:17;1.70;;;1.00;;
27257;SDS011;62045;49.986;8.672;2022-12-07T03:20:28;2.05;;;1.00;;
27257;SDS011;62045;49.986;8.672;2022-12-07T03:25:31;2.05;;;1.08;;
27257;SDS011;62045;49.986;8.672;2022-12-07T03:30:37;2.13;;;1.08;;
27257;SDS011;62045;49.986;8.672;2022-12-07T03:35:44;2.47;;;1.17;;
27257;SDS011;62045;49.986;8.672;2022-12-07T03:40:50;1.92;;;0.80;;
27257;SDS011;62045;49.986;8.672;2022-12-07T03:46:00;2.20;;;1.17;;
27257;SDS011;62045;49.986;8.672;2022-12-07T03:51:17;2.33;;;1.00;;
27257;SDS011;62045;49.986;8.672;2022-12-07T03:56:22;1.80;;;1.00;;
27257;SDS011;62045;49.986;8.672;2022-12-07T04:01:25;2.30;;;1.20;;
27257;SDS011;62045;49.986;8.672;2022-12-07T04:06:25;1.92;;;1.08;;
27257;SDS011;62045;49.986;8.672;2022-12-07T04:11:26;1.63;;;0.82;;
27257;SDS011;62045;49.986;8.672;2022-12-07T04:16:28;2.30;;;1.08;;
27257;SDS011;62045;49.986;8.672;2022-12-07T04:21:29;1.83;;;1.00;;
27257;SDS011;62045;49.986;8.672;2022-12-07T04:26:29;1.80;;;0.95;;
27257;SDS011;62045;49.986;8.672;2022-12-07T04:31:32;2.10;;;1.10;;
27257;SDS011;62045;49.986;8.672;2022-12-07T04:36:32;2.25;;;1.10;;
27257;SDS011;62045;49.986;8.672;2022-12-07T04:41:33;1.95;;;0.93;;
27257;SDS011;62045;49.986;8.672;2022-12-07T04:46:35;1.42;;;0.90;;
27257;SDS011;62045;49.986;8.672;2022-12-07T04:51:36;1.67;;;0.90;;
27257;SDS011;62045;49.986;8.672;2022-12-07T04:56:37;2.00;;;1.00;;
27257;SDS011;62045;49.986;8.672;2022-12-07T05:01:39;1.92;;;1.17;;
27257;SDS011;62045;49.986;8.672;2022-12-07T05:06:40;2.05;;;1.10;;
27257;SDS011;62045;49.986;8.672;2022-12-07T05:11:41;2.10;;;1.15;;
27257;SDS011;62045;49.986;8.672;2022-12-07T05:16:43;2.40;;;1.23;;
27257;SDS011;62045;49.986;8.672;2022-12-07T05:21:45;2.00;;;1.17;;
27257;SDS011;62045;49.986;8.672;2022-12-07T05:26:46;1.52;;;0.90;;
27257;SDS011;62045;49.986;8.672;2022-12-07T05:31:48;1.67;;;0.82;;
27257;SDS011;62045;49.986;8.672;2022-12-07T05:36:49;1.92;;;1.08;;
27257;SDS011;62045;49.986;8.672;2022-12-07T05:41:50;1.77;;;0.90;;
27257;SDS011;62045;49.986;8.672;2022-12-07T05:46:52;2.92;;;1.58;;
27257;SDS011;62045;49.986;8.672;2022-12-07T05:51:52;1.98;;;0.93;;
27257;SDS011;62045;49.986;8.672;2022-12-07T05:56:53;1.85;;;1.02;;
27257;SDS011;62045;49.986;8.672;2022-12-07T06:01:56;1.88;;;0.93;;
27257;SDS011;62045;49.986;8.672;2022-12-07T06:06:58;1.90;;;0.80;;
27257;SDS011;62045;49.986;8.672;2022-12-07T06:11:58;1.63;;;0.90;;
27257;SDS011;62045;49.986;8.672;2022-12-07T06:17:01;1.70;;;0.95;;
27257;SDS011;62045;49.986;8.672;2022-12-07T06:22:02;1.80;;;0.98;;
27257;SDS011;62045;49.986;8.672;2022-12-07T06:27:03;1.25;;;0.70;;
27257;SDS011;62045;49.986;8.672;2022-12-07T06:32:05;1.38;;;0.80;;
27257;SDS011;62045;49.986;8.672;2022-12-07T06:37:06;1.50;;;0.82;;
27257;SDS011;62045;49.986;8.672;2022-12-07T06:42:06;1.65;;;0.90;;
27257;SDS011;62045;49.986;8.672;2022-12-07T06:47:08;1.55;;;0.70;;
27257;SDS011;62045;49.986;8.672;2022-12-07T06:52:09;2.20;;;0.90;;
27257;SDS011;62045;49.986;8.672;2022-12-07T06:57:10;1.50;;;0.93;;
27257;SDS011;62045;49.986;8.672;2022-12-07T07:02:12;1.60;;;0.70;;
27257;SDS011;62045;49.986;8.672;2022-12-07T07:07:13;2.05;;;0.90;;
27257;SDS011;62045;49.986;8.672;2022-12-07T07:12:13;2.08;;;0.90;;
27257;SDS011;62045;49.986;8.672;2022-12-07T07:17:15;1.92;;;0.90;;
27257;SDS011;62045;49.986;8.672;2022-12-07T07:22:16;1.92;;;0.93;;
27257;SDS011;62045;49.986;8.672;2022-12-07T07:27:17;1.70;;;1.00;;
27257;SDS011;62045;49.986;8.672;2022-12-07T07:32:19;1.90;;;0.90;;
27257;SDS011;62045;49.986;8.672;2022-12-07T07:37:19;1.58;;;0.80;;
27257;SDS011;62045;49.986;8.672;2022-12-07T07:42:20;1.00;;;0.57;;
27257;SDS011;62045;49.986;8.672;2022-12-07T07:47:22;1.85;;;1.00;;
27257;SDS011;62045;49.986;8.672;2022-12-07T07:52:23;1.33;;;0.80;;
27257;SDS011;62045;49.986;8.672;2022-12-07T07:57:24;1.85;;;0.90;;
27257;SDS011;62045;49.986;8.672;2022-12-07T08:02:26;2.45;;;1.02;;
27257;SDS011;62045;49.986;8.672;2022-12-07T08:07:26;2.90;;;1.20;;
27257;SDS011;62045;49.986;8.672;2022-12-07T08:12:28;17.90;;;3.20;;
27257;SDS011;62045;49.986;8.672;2022-12-07T08:17:30;14.70;;;3.45;;
27257;SDS011;62045;49.986;8.672;2022-12-07T08:22:30;14.23;;;3.90;;
27257;SDS011;62045;49.986;8.672;2022-12-07T08:27:31;13.65;;;5.45;;
27257;SDS011;62045;49.986;8.672;2022-12-07T08:32:36;9.43;;;5.55;;
27257;SDS011;62045;49.986;8.672;2022-12-07T08:37:37;10.73;;;5.95;;
27257;SDS011;62045;49.986;8.672;2022-12-07T08:42:38;8.20;;;5.82;;
27257;SDS011;62045;49.986;8.672;2022-12-07T08:52:47;10.27;;;5.10;;
27257;SDS011;62045;49.986;8.672;2022-12-07T08:57:51;8.05;;;4.93;;
27257;SDS011;62045;49.986;8.672;2022-12-07T09:02:53;6.45;;;4.10;;
27257;SDS011;62045;49.986;8.672;2022-12-07T09:07:54;8.23;;;3.45;;
27257;SDS011;62045;49.986;8.672;2022-12-07T09:12:59;5.50;;;3.30;;
27257;SDS011;62045;49.986;8.672;2022-12-07T09:18:01;7.63;;;3.20;;
27257;SDS011;62045;49.986;8.672;2022-12-07T09:23:02;7.72;;;3.17;;
27257;SDS011;62045;49.986;8.672;2022-12-07T09:28:05;8.23;;;2.90;;
27257;SDS011;62045;49.986;8.672;2022-12-07T09:33:07;5.28;;;2.83;;
27257;SDS011;62045;49.986;8.672;2022-12-07T09:38:07;5.22;;;2.67;;
27257;SDS011;62045;49.986;8.672;2022-12-07T09:43:11;3.78;;;2.42;;
27257;SDS011;62045;49.986;8.672;2022-12-07T09:48:17;5.43;;;2.42;;
27257;SDS011;62045;49.986;8.672;2022-12-07T09:53:23;5.80;;;2.47;;
27257;SDS011;62045;49.986;8.672;2022-12-07T09:58:27;3.95;;;2.08;;
27257;SDS011;62045;49.986;8.672;2022-12-07T10:03:31;6.20;;;2.17;;
27257;SDS011;62045;49.986;8.672;2022-12-07T10:08:32;9.00;;;2.25;;
27257;SDS011;62045;49.986;8.672;2022-12-07T10:13:34;3.90;;;2.25;;
27257;SDS011;62045;49.986;8.672;2022-12-07T10:18:38;4.57;;;2.00;;
27257;SDS011;62045;49.986;8.672;2022-12-07T10:23:40;3.92;;;1.83;;
27257;SDS011;62045;49.986;8.672;2022-12-07T10:28:42;2.97;;;1.70;;
27257;SDS011;62045;49.986;8.672;2022-12-07T10:33:49;3.00;;;1.80;;
27257;SDS011;62045;49.986;8.672;2022-12-07T10:38:52;15.00;;;1.83;;
27257;SDS011;62045;49.986;8.672;2022-12-07T10:43:58;5.72;;;1.70;;
27257;SDS011;62045;49.986;8.672;2022-12-07T10:49:01;5.03;;;1.55;;
27257;SDS011;62045;49.986;8.672;2022-12-07T10:54:16;5.28;;;1.60;;
27257;SDS011;62045;49.986;8.672;2022-12-07T11:04:52;3.25;;;1.60;;
27257;SDS011;62045;49.986;8.672;2022-12-07T11:15:09;3.28;;;1.45;;
27257;SDS011;62045;49.986;8.672;2022-12-07T11:20:18;2.55;;;1.35;;
27257;SDS011;62045;49.986;8.672;2022-12-07T11:25:35;4.13;;;1.67;;
27257;SDS011;62045;49.986;8.672;2022-12-07T11:30:46;4.22;;;1.70;;
27257;SDS011;62045;49.986;8.672;2022-12-07T11:36:02;3.33;;;1.50;;
27257;SDS011;62045;49.986;8.672;2022-12-07T11:41:19;2.22;;;1.10;;
27257;SDS011;62045;49.986;8.672;2022-12-07T11:46:25;2.42;;;1.20;;
27257;SDS011;62045;49.986;8.672;2022-12-07T11:51:31;6.38;;;1.45;;
27257;SDS011;62045;49.986;8.672;2022-12-07T11:56:36;2.75;;;1.38;;
27257;SDS011;62045;49.986;8.672;2022-12-07T12:01:43;2.42;;;1.30;;
27257;SDS011;62045;49.986;8.672;2022-12-07T12:06:52;3.45;;;1.50;;
27257;SDS011;62045;49.986;8.672;2022-12-07T12:11:58;4.47;;;1.60;;
27257;SDS011;62045;49.986;8.672;2022-12-07T12:22:42;3.13;;;1.08;;
27257;SDS011;62045;49.986;8.672;2022-12-07T12:27:47;4.45;;;1.08;;
27257;SDS011;62045;49.986;8.672;2022-12-07T12:32:50;2.33;;;1.10;;
27257;SDS011;62045;49.986;8.672;2022-12-07T12:37:53;2.63;;;1.20;;
27257;SDS011;62045;49.986;8.672;2022-12-07T12:42:54;2.88;;;1.30;;
27257;SDS011;62045;49.986;8.672;2022-12-07T12:48:00;3.65;;;1.27;;
27257;SDS011;62045;49.986;8.672;2022-12-07T12:58:37;3.20;;;1.02;;
27257;SDS011;62045;49.986;8.672;2022-12-07T13:03:50;3.95;;;1.13;;
27257;SDS011;62045;49.986;8.672;2022-12-07T13:08:54;2.90;;;1.13;;
27257;SDS011;62045;49.986;8.672;2022-12-07T13:30:06;2.03;;;1.05;;
27257;SDS011;62045;49.986;8.672;2022-12-07T13:35:32;3.30;;;0.88;;
27257;SDS011;62045;49.986;8.672;2022-12-07T13:40:36;3.13;;;1.30;;
27257;SDS011;62045;49.986;8.672;2022-12-07T13:45:37;1.75;;;0.82;;
27257;SDS011;62045;49.986;8.672;2022-12-07T13:50:38;3.15;;;1.00;;
27257;SDS011;62045;49.986;8.672;2022-12-07T13:55:45;2.33;;;1.00;;
27257;SDS011;62045;49.986;8.672;2022-12-07T14:00:46;2.53;;;0.80;;
27257;SDS011;62045;49.986;8.672;2022-12-07T14:05:48;3.42;;;0.90;;
27257;SDS011;62045;49.986;8.672;2022-12-07T14:11:05;3.13;;;0.93;;
27257;SDS011;62045;49.986;8.672;2022-12-07T14:16:18;2.15;;;0.80;;
27257;SDS011;62045;49.986;8.672;2022-12-07T14:21:24;1.85;;;1.08;;
27257;SDS011;62045;49.986;8.672;2022-12-07T14:26:27;2.70;;;0.70;;
27257;SDS011;62045;49.986;8.672;2022-12-07T14:31:28;3.55;;;1.60;;
27257;SDS011;62045;49.986;8.672;2022-12-07T14:36:29;1.65;;;0.88;;
27257;SDS011;62045;49.986;8.672;2022-12-07T14:41:31;1.60;;;0.82;;
27257;SDS011;62045;49.986;8.672;2022-12-07T14:46:32;3.35;;;1.25;;
27257;SDS011;62045;49.986;8.672;2022-12-07T14:51:32;6.82;;;0.90;;
27257;SDS011;62045;49.986;8.672;2022-12-07T14:56:37;3.50;;;1.00;;
27257;SDS011;62045;49.986;8.672;2022-12-07T15:01:37;2.00;;;0.77;;
27257;SDS011;62045;49.986;8.672;2022-12-07T15:06:38;3.38;;;0.77;;
27257;SDS011;62045;49.986;8.672;2022-12-07T15:11:40;3.08;;;0.85;;
27257;SDS011;62045;49.986;8.672;2022-12-07T15:16:41;2.10;;;0.80;;
27257;SDS011;62045;49.986;8.672;2022-12-07T15:21:43;2.45;;;1.00;;
27257;SDS011;62045;49.986;8.672;2022-12-07T15:26:45;2.15;;;0.80;;
27257;SDS011;62045;49.986;8.672;2022-12-07T15:31:47;1.90;;;0.88;;
27257;SDS011;62045;49.986;8.672;2022-12-07T15:36:48;1.70;;;0.80;;
27257;SDS011;62045;49.986;8.672;2022-12-07T15:41:50;1.73;;;0.70;;
27257;SDS011;62045;49.986;8.672;2022-12-07T15:46:51;1.77;;;0.70;;
27257;SDS011;62045;49.986;8.672;2022-12-07T15:51:52;1.77;;;0.80;;
27257;SDS011;62045;49.986;8.672;2022-12-07T15:56:54;2.03;;;0.85;;
27257;SDS011;62045;49.986;8.672;2022-12-07T16:01:55;1.67;;;0.90;;
27257;SDS011;62045;49.986;8.672;2022-12-07T16:06:56;2.42;;;0.88;;
27257;SDS011;62045;49.986;8.672;2022-12-07T16:11:59;2.70;;;0.80;;
27257;SDS011;62045;49.986;8.672;2022-12-07T16:16:59;1.60;;;0.70;;
27257;SDS011;62045;49.986;8.672;2022-12-07T16:22:00;3.58;;;0.68;;
27257;SDS011;62045;49.986;8.672;2022-12-07T16:27:02;2.95;;;0.80;;
27257;SDS011;62045;49.986;8.672;2022-12-07T16:32:03;1.85;;;0.90;;
27257;SDS011;62045;49.986;8.672;2022-12-07T16:37:04;2.83;;;0.90;;
27257;SDS011;62045;49.986;8.672;2022-12-07T16:42:06;1.67;;;0.57;;
27257;SDS011;62045;49.986;8.672;2022-12-07T16:47:07;4.22;;;0.98;;
27257;SDS011;62045;49.986;8.672;2022-12-07T16:52:08;2.60;;;0.95;;
27257;SDS011;62045;49.986;8.672;2022-12-07T16:57:10;2.00;;;0.88;;
27257;SDS011;62045;49.986;8.672;2022-12-07T17:02:11;2.20;;;0.80;;
27257;SDS011;62045;49.986;8.672;2022-12-07T17:07:12;1.10;;;0.52;;
27257;SDS011;62045;49.986;8.672;2022-12-07T17:12:14;1.88;;;0.77;;
27257;SDS011;62045;49.986;8.672;2022-12-07T17:17:15;3.20;;;1.25;;
27257;SDS011;62045;49.986;8.672;2022-12-07T17:22:15;8.50;;;2.25;;
27257;SDS011;62045;49.986;8.672;2022-12-07T17:27:17;6.18;;;3.80;;
27257;SDS011;62045;49.986;8.672;2022-12-07T17:32:18;7.50;;;4.47;;
27257;SDS011;62045;49.986;8.672;2022-12-07T17:37:19;9.50;;;6.57;;
27257;SDS011;62045;49.986;8.672;2022-12-07T17:42:21;10.63;;;7.05;;
27257;SDS011;62045;49.986;8.672;2022-12-07T17:47:21;12.63;;;8.25;;
27257;SDS011;62045;49.986;8.672;2022-12-07T17:52:22;11.48;;;7.72;;
27257;SDS011;62045;49.986;8.672;2022-12-07T17:57:24;11.63;;;8.13;;
27257;SDS011;62045;49.986;8.672;2022-12-07T18:02:25;13.18;;;8.25;;
27257;SDS011;62045;49.986;8.672;2022-12-07T18:07:26;9.77;;;6.63;;
27257;SDS011;62045;49.986;8.672;2022-12-07T18:12:28;11.60;;;7.00;;
27257;SDS011;62045;49.986;8.672;2022-12-07T18:17:28;8.65;;;6.25;;
27257;SDS011;62045;49.986;8.672;2022-12-07T18:22:29;9.15;;;6.18;;
27257;SDS011;62045;49.986;8.672;2022-12-07T18:27:31;13.15;;;6.25;;
27257;SDS011;62045;49.986;8.672;2022-12-07T18:32:32;8.90;;;5.10;;
27257;SDS011;62045;49.986;8.672;2022-12-07T18:37:32;9.38;;;5.35;;
27257;SDS011;62045;49.986;8.672;2022-12-07T18:42:35;7.80;;;5.30;;
27257;SDS011;62045;49.986;8.672;2022-12-07T18:47:35;7.40;;;4.45;;
27257;SDS011;62045;49.986;8.672;2022-12-07T18:52:36;7.70;;;5.13;;
27257;SDS011;62045;49.986;8.672;2022-12-07T18:57:38;6.55;;;3.90;;
27257;SDS011;62045;49.986;8.672;2022-12-07T19:02:39;6.75;;;4.05;;
27257;SDS011;62045;49.986;8.672;2022-12-07T19:07:40;7.80;;;3.90;;
27257;SDS011;62045;49.986;8.672;2022-12-07T19:12:43;6.47;;;3.88;;
27257;SDS011;62045;49.986;8.672;2022-12-07T19:17:44;5.75;;;3.95;;
27257;SDS011;62045;49.986;8.672;2022-12-07T19:22:45;5.80;;;3.75;;
27257;SDS011;62045;49.986;8.672;2022-12-07T19:27:47;5.95;;;3.58;;
27257;SDS011;62045;49.986;8.672;2022-12-07T19:32:47;6.90;;;4.15;;
27257;SDS011;62045;49.986;8.672;2022-12-07T19:37:48;7.35;;;3.53;;
27257;SDS011;62045;49.986;8.672;2022-12-07T19:42:50;5.57;;;3.30;;
27257;SDS011;62045;49.986;8.672;2022-12-07T19:47:51;4.32;;;2.95;;
27257;SDS011;62045;49.986;8.672;2022-12-07T19:52:51;5.53;;;3.28;;
27257;SDS011;62045;49.986;8.672;2022-12-07T19:57:54;5.68;;;3.10;;
27257;SDS011;62045;49.986;8.672;2022-12-07T20:02:54;5.25;;;3.22;;
27257;SDS011;62045;49.986;8.672;2022-12-07T20:07:55;4.63;;;2.95;;
27257;SDS011;62045;49.986;8.672;2022-12-07T20:12:57;5.18;;;3.10;;
27257;SDS011;62045;49.986;8.672;2022-12-07T20:17:58;4.82;;;2.85;;
27257;SDS011;62045;49.986;8.672;2022-12-07T20:22:58;4.65;;;2.60;;
27257;SDS011;62045;49.986;8.672;2022-12-07T20:28:00;5.82;;;2.78;;
27257;SDS011;62045;49.986;8.672;2022-12-07T20:33:01;4.88;;;2.38;;
27257;SDS011;62045;49.986;8.672;2022-12-07T20:38:02;6.57;;;2.60;;
27257;SDS011;62045;49.986;8.672;2022-12-07T20:43:04;5.47;;;2.58;;
27257;SDS011;62045;49.986;8.672;2022-12-07T20:48:07;4.93;;;2.80;;
27257;SDS011;62045;49.986;8.672;2022-12-07T20:53:08;4.47;;;2.63;;
27257;SDS011;62045;49.986;8.672;2022-12-07T20:58:10;4.10;;;2.35;;
27257;SDS011;62045;49.986;8.672;2022-12-07T21:03:11;3.67;;;2.10;;
27257;SDS011;62045;49.986;8.672;2022-12-07T21:08:12;3.13;;;2.05;;
27257;SDS011;62045;49.986;8.672;2022-12-07T21:13:14;3.85;;;2.17;;
27257;SDS011;62045;49.986;8.672;2022-12-07T21:18:14;6.15;;;2.20;;
27257;SDS011;62045;49.986;8.672;2022-12-07T21:23:15;3.53;;;2.30;;
27257;SDS011;62045;49.986;8.672;2022-12-07T21:28:17;3.67;;;1.73;;
27257;SDS011;62045;49.986;8.672;2022-12-07T21:33:18;4.70;;;2.47;;
27257;SDS011;62045;49.986;8.672;2022-12-07T21:38:19;3.75;;;2.17;;
27257;SDS011;62045;49.986;8.672;2022-12-07T21:43:21;4.32;;;2.00;;
27257;SDS011;62045;49.986;8.672;2022-12-07T21:48:22;3.60;;;1.83;;
27257;SDS011;62045;49.986;8.672;2022-12-07T21:53:23;3.42;;;2.30;;
27257;SDS011;62045;49.986;8.672;2022-12-07T21:58:25;5.95;;;2.13;;
27257;SDS011;62045;49.986;8.672;2022-12-07T22:03:26;3.70;;;2.20;;
27257;SDS011;62045;49.986;8.672;2022-12-07T22:08:27;3.05;;;1.75;;
27257;SDS011;62045;49.986;8.672;2022-12-07T22:13:29;3.78;;;2.15;;
27257;SDS011;62045;49.986;8.672;2022-12-07T22:18:29;2.95;;;1.98;;
27257;SDS011;62045;49.986;8.672;2022-12-07T22:23:30;3.30;;;1.88;;
27257;SDS011;62045;49.986;8.672;2022-12-07T22:28:33;4.25;;;1.83;;
27257;SDS011;62045;49.986;8.672;2022-12-07T22:33:36;3.58;;;1.73;;
27257;SDS011;62045;49.986;8.672;2022-12-07T22:38:38;3.42;;;1.70;;
27257;SDS011;62045;49.986;8.672;2022-12-07T22:43:40;2.63;;;1.55;;
27257;SDS011;62045;49.986;8.672;2022-12-07T22:48:41;3.25;;;1.85;;
27257;SDS011;62045;49.986;8.672;2022-12-07T22:53:42;3.50;;;1.77;;
27257;SDS011;62045;49.986;8.672;2022-12-07T22:58:44;3.22;;;1.80;;
27257;SDS011;62045;49.986;8.672;2022-12-07T23:03:45;2.85;;;1.70;;
27257;SDS011;62045;49.986;8.672;2022-12-07T23:08:46;3.15;;;1.63;;
27257;SDS011;62045;49.986;8.672;2022-12-07T23:13:48;2.90;;;1.52;;
27257;SDS011;62045;49.986;8.672;2022-12-07T23:18:49;3.00;;;1.60;;
27257;SDS011;62045;49.986;8.672;2022-12-07T23:23:50;2.75;;;1.40;;
27257;SDS011;62045;49.986;8.672;2022-12-07T23:28:52;3.33;;;1.58;;
27257;SDS011;62045;49.986;8.672;2022-12-07T23:33:53;2.60;;;1.50;;
27257;SDS011;62045;49.986;8.672;2022-12-07T23:38:55;3.78;;;1.60;;
27257;SDS011;62045;49.986;8.672;2022-12-07T23:43:58;3.42;;;1.55;;
27257;SDS011;62045;49.986;8.672;2022-12-07T23:49:01;2.97;;;1.40;;
27257;SDS011;62045;49.986;8.672;2022-12-07T23:54:04;3.03;;;1.63;;
27257;SDS011;62045;49.986;8.672;2022-12-07T23:59:06;3.35;;;1.50;;
